createdAt,value
2017-07-26T16:58:17.952Z,13.73
2017-07-26T17:00:45.524Z,13.70
2017-07-26T17:03:12.358Z,11.83
2017-07-26T17:05:39.237Z,9.10
2017-07-26T17:08:06.098Z,12.30
2017-07-26T17:10:32.932Z,9.43
2017-07-26T17:12:59.765Z,9.70
2017-07-26T17:15:26.664Z,11.30
2017-07-26T17:17:53.512Z,10.83
2017-07-26T17:20:20.372Z,9.20
2017-07-26T17:22:47.192Z,7.80
2017-07-26T17:25:14.241Z,7.60
2017-07-26T17:27:41.059Z,7.93
2017-07-26T17:30:07.861Z,15.33
2017-07-26T17:32:34.650Z,12.07
2017-07-26T17:35:01.511Z,9.47
2017-07-26T17:37:28.360Z,8.80
2017-07-26T17:39:55.133Z,8.20
2017-07-26T17:42:21.989Z,8.10
2017-07-26T17:44:48.836Z,7.93
2017-07-26T17:47:16.594Z,8.00
2017-07-26T17:49:43.482Z,8.77
2017-07-26T17:52:10.307Z,9.73
2017-07-26T17:54:37.086Z,11.80
2017-07-26T17:57:04.003Z,9.67
2017-07-26T17:59:30.787Z,8.20
2017-07-26T18:01:57.563Z,8.17
2017-07-26T18:04:24.400Z,6.53
2017-07-26T18:06:51.168Z,5.77
2017-07-26T18:09:17.945Z,5.30
2017-07-26T18:11:44.756Z,5.80
2017-07-26T18:14:11.517Z,5.97
2017-07-26T18:16:38.359Z,6.37
2017-07-26T18:19:05.178Z,7.20
2017-07-26T18:21:31.957Z,5.83
2017-07-26T18:23:58.735Z,6.70
2017-07-26T18:26:25.875Z,6.20
2017-07-26T18:28:52.648Z,6.20
2017-07-26T18:31:19.442Z,7.37
2017-07-26T18:33:47.008Z,7.10
2017-07-26T18:36:13.781Z,7.67
2017-07-26T18:38:40.554Z,7.93
2017-07-26T18:41:07.372Z,8.77
2017-07-26T18:43:34.196Z,8.40
2017-07-26T18:46:01.036Z,9.27
2017-07-26T18:48:27.910Z,10.73
2017-07-26T18:50:54.732Z,9.80
2017-07-26T18:53:21.557Z,9.03
2017-07-26T18:55:48.512Z,8.53
2017-07-26T18:58:15.348Z,7.73
2017-07-26T19:00:42.125Z,6.80
2017-07-26T19:03:08.962Z,8.27
2017-07-26T19:05:35.773Z,7.40
2017-07-26T19:08:02.552Z,7.30
2017-07-26T19:10:29.460Z,7.60
2017-07-26T19:12:56.286Z,11.77
2017-07-26T19:15:23.084Z,12.50
2017-07-26T19:17:49.943Z,9.13
2017-07-26T19:20:16.747Z,9.10
2017-07-26T19:22:44.310Z,8.40
2017-07-26T19:25:11.124Z,9.33
2017-07-26T19:27:37.965Z,7.60
2017-07-26T19:30:04.779Z,7.90
2017-07-26T19:32:31.655Z,7.50
2017-07-26T19:34:58.477Z,6.73
2017-07-26T19:37:25.322Z,6.73
2017-07-26T19:39:52.145Z,6.73
2017-07-26T19:42:18.923Z,7.13
2017-07-26T19:44:45.776Z,7.60
2017-07-26T19:47:12.609Z,7.43
2017-07-26T19:49:39.402Z,6.70
2017-07-26T19:52:06.246Z,7.20
2017-07-26T19:54:33.139Z,6.70
2017-07-26T19:56:59.924Z,7.37
2017-07-26T19:59:26.779Z,6.77
2017-07-26T20:01:53.954Z,6.23
2017-07-26T20:04:20.804Z,6.83
2017-07-26T20:06:47.656Z,6.70
2017-07-26T20:09:14.509Z,6.73
2017-07-26T20:11:41.337Z,7.30
2017-07-26T20:14:08.230Z,8.00
2017-07-26T20:16:35.067Z,6.00
2017-07-26T20:19:01.856Z,6.10
2017-07-26T20:21:28.630Z,6.10
2017-07-26T20:23:55.509Z,5.97
2017-07-26T20:26:22.354Z,6.70
2017-07-26T20:28:49.116Z,6.20
2017-07-26T20:31:16.158Z,6.40
2017-07-26T20:33:42.987Z,7.30
2017-07-26T20:36:09.773Z,6.73
2017-07-26T20:38:36.725Z,7.70
2017-07-26T20:41:03.543Z,7.07
2017-07-26T20:43:30.325Z,7.10
2017-07-26T20:45:57.940Z,6.67
2017-07-26T20:48:24.782Z,6.83
2017-07-26T20:50:51.630Z,6.90
2017-07-26T20:53:18.442Z,6.73
2017-07-26T20:55:45.493Z,6.33
2017-07-26T20:58:13.740Z,6.60
2017-07-26T21:00:40.551Z,5.83
2017-07-26T21:03:07.391Z,5.77
2017-07-26T21:05:34.323Z,5.57
2017-07-26T21:08:01.157Z,5.90
2017-07-26T21:10:27.961Z,4.87
2017-07-26T21:12:55.514Z,5.17
2017-07-26T21:15:22.391Z,5.30
2017-07-26T21:17:49.211Z,5.03
2017-07-26T21:20:16.027Z,4.77
2017-07-26T21:22:42.921Z,5.03
2017-07-26T21:25:09.685Z,4.90
2017-07-26T21:27:36.563Z,5.23
2017-07-26T21:30:03.456Z,5.50
2017-07-26T21:32:30.769Z,5.60
2017-07-26T21:34:57.587Z,5.53
2017-07-26T21:37:24.463Z,5.53
2017-07-26T21:39:51.808Z,5.93
2017-07-26T21:42:18.577Z,5.37
2017-07-26T21:44:46.739Z,5.90
2017-07-26T21:47:14.330Z,5.70
2017-07-26T21:49:41.739Z,5.90
2017-07-26T21:52:08.553Z,5.53
2017-07-26T21:54:35.400Z,6.20
2017-07-26T21:57:02.244Z,6.30
2017-07-26T21:59:29.128Z,6.80
2017-07-26T22:01:55.891Z,6.40
2017-07-26T22:04:22.652Z,6.87
2017-07-26T22:06:50.451Z,6.10
2017-07-26T22:09:18.039Z,7.00
2017-07-26T22:11:45.257Z,6.53
2017-07-26T22:14:12.830Z,6.50
2017-07-26T22:16:39.803Z,7.20
2017-07-26T22:19:06.748Z,6.87
2017-07-26T22:21:33.836Z,6.70
2017-07-26T22:24:01.456Z,7.00
2017-07-26T22:26:28.228Z,6.43
2017-07-26T22:28:55.132Z,6.70
2017-07-26T22:31:21.972Z,6.10
2017-07-26T22:33:49.229Z,6.70
2017-07-26T22:36:16.725Z,6.80
2017-07-26T22:38:45.495Z,6.60
2017-07-26T22:41:12.319Z,5.70
2017-07-26T22:43:40.410Z,5.87
2017-07-26T22:46:07.292Z,6.00
2017-07-26T22:48:34.122Z,5.37
2017-07-26T22:51:01.892Z,5.60
2017-07-26T22:53:28.658Z,5.37
2017-07-26T22:55:55.498Z,4.93
2017-07-26T22:58:22.585Z,5.50
2017-07-26T23:00:49.437Z,5.27
2017-07-26T23:03:16.275Z,5.30
2017-07-26T23:05:43.467Z,5.53
2017-07-26T23:08:10.310Z,5.63
2017-07-26T23:10:37.127Z,4.90
2017-07-26T23:13:04.881Z,5.20
2017-07-26T23:15:31.696Z,5.20
2017-07-26T23:17:59.389Z,5.17
2017-07-26T23:20:27.065Z,4.87
2017-07-26T23:22:53.848Z,5.23
2017-07-26T23:25:20.675Z,6.47
2017-07-26T23:27:50.484Z,4.90
2017-07-26T23:30:18.303Z,5.43
2017-07-26T23:32:45.140Z,5.10
2017-07-26T23:35:12.033Z,5.20
2017-07-26T23:37:38.793Z,5.27
2017-07-26T23:40:05.557Z,5.10
2017-07-26T23:42:32.394Z,4.80
2017-07-26T23:44:59.246Z,4.90
2017-07-26T23:47:26.071Z,5.40
2017-07-26T23:49:52.901Z,4.70
2017-07-26T23:52:19.755Z,5.10
2017-07-26T23:54:46.603Z,4.53
2017-07-26T23:57:13.467Z,4.70
2017-07-26T23:59:40.319Z,4.80
